Time;durP1;ratioP1;P1;durP2;ratioP2;P2;SDS_P1;SDS_P2;PMS_P1;PMS_P2;Temp;Humidity;BMP_temperature;BMP_pressure;BME280_temperature;BME280_humidity;BME280_pressure;Samples;Min_cycle;Max_cycle;Signal;HPM_P1;HPM_P2
2023/06/15 00:00:34;;;;;;;18.42;10.25;;;14.50;99.90;;;;;;5095842;28;20205;-84
2023/06/15 00:03:00;;;;;;;15.13;9.60;;;14.50;99.90;;;;;;5095623;28;20174;-83
2023/06/15 00:05:25;;;;;;;14.65;9.02;;;14.50;99.90;;;;;;5095598;28;20186;-83
2023/06/15 00:07:51;;;;;;;18.42;9.60;;;14.50;99.90;;;;;;5095734;28;20186;-83
2023/06/15 00:10:17;;;;;;;15.48;9.40;;;14.50;99.90;;;;;;5095608;28;20235;-83
2023/06/15 00:12:43;;;;;;;17.75;9.85;;;14.60;99.90;;;;;;5095583;28;20291;-83
2023/06/15 00:15:10;;;;;;;12.90;8.82;;;14.60;99.90;;;;;;5077337;28;20586;-83
2023/06/15 00:17:37;;;;;;;16.20;9.07;;;14.60;99.90;;;;;;5095408;28;20181;-83
2023/06/15 00:20:08;;;;;;;16.13;10.30;;;14.60;99.90;;;;;;5095352;28;20303;-83
2023/06/15 00:22:41;;;;;;;15.80;9.50;;;14.60;99.90;;;;;;5077911;28;20182;-84
2023/06/15 00:25:10;;;;;;;17.02;9.40;;;14.60;99.90;;;;;;5095085;28;20508;-83
2023/06/15 00:27:36;;;;;;;16.90;9.40;;;14.60;99.90;;;;;;5095356;28;20178;-84
2023/06/15 00:30:04;;;;;;;14.05;9.45;;;14.50;99.90;;;;;;5095365;28;20241;-84
2023/06/15 00:32:30;;;;;;;15.30;9.15;;;14.50;99.90;;;;;;5095020;28;20653;-84
2023/06/15 00:34:56;;;;;;;11.93;8.85;;;14.50;99.90;;;;;;5095079;28;20185;-83
2023/06/15 00:37:22;;;;;;;18.15;9.70;;;;;;;;;;5095327;28;20175;-84
2023/06/15 00:39:48;;;;;;;14.68;9.23;;;14.40;99.90;;;;;;5094981;28;20631;-82
2023/06/15 00:42:13;;;;;;;14.10;9.23;;;14.40;99.90;;;;;;5077160;28;20185;-85
2023/06/15 00:44:39;;;;;;;14.27;8.80;;;14.40;99.90;;;;;;5094913;28;20183;-83
2023/06/15 00:47:05;;;;;;;14.73;10.07;;;14.30;99.90;;;;;;5094474;28;20201;-83
2023/06/15 00:49:33;;;;;;;16.17;9.15;;;14.30;99.90;;;;;;5094883;28;20210;-84
2023/06/15 00:52:00;;;;;;;16.25;10.18;;;14.30;99.90;;;;;;5094750;28;20174;-83
2023/06/15 00:54:26;;;;;;;16.75;9.30;;;14.20;99.90;;;;;;5095158;28;20247;-84
2023/06/15 00:56:52;;;;;;;15.95;9.73;;;14.20;99.90;;;;;;5094302;28;20638;-83
2023/06/15 00:59:19;;;;;;;17.45;9.18;;;14.20;99.90;;;;;;5094692;28;20182;-83
2023/06/15 01:01:47;;;;;;;14.98;9.23;;;14.10;99.90;;;;;;5094472;28;20178;-84
2023/06/15 01:04:13;;;;;;;14.70;10.15;;;14.10;99.90;;;;;;5094536;28;20178;-83
2023/06/15 01:06:42;;;;;;;13.48;9.52;;;14.10;99.90;;;;;;5094654;28;20178;-84
2023/06/15 01:09:11;;;;;;;13.07;8.68;;;14.00;99.90;;;;;;5076143;28;20202;-84
2023/06/15 01:11:38;;;;;;;18.67;9.18;;;14.00;99.90;;;;;;5094641;28;20644;-83
2023/06/15 01:14:05;;;;;;;20.70;10.32;;;14.00;99.90;;;;;;5094302;28;20178;-83
2023/06/15 01:16:41;;;;;;;16.60;8.93;;;13.90;99.90;;;;;;5094636;28;20626;-84
2023/06/15 01:19:29;;;;;;;14.45;9.10;;;13.90;99.90;;;;;;5094303;28;20185;-84
2023/06/15 01:21:59;;;;;;;15.65;9.23;;;13.30;99.90;;;;;;5094206;28;20545;-84
2023/06/15 01:24:35;;;;;;;15.18;9.25;;;13.40;99.90;;;;;;5076128;28;20239;-84
2023/06/15 01:27:04;;;;;;;13.40;8.43;;;14.10;99.90;;;;;;5076051;28;20174;-83
2023/06/15 01:29:34;;;;;;;17.45;8.93;;;13.80;99.90;;;;;;5093895;28;20231;-84
2023/06/15 01:32:01;;;;;;;24.58;9.18;;;13.30;99.90;;;;;;5093924;28;20213;-83
2023/06/15 01:34:27;;;;;;;19.45;8.27;;;13.70;99.90;;;;;;5093896;28;20585;-84
2023/06/15 01:36:53;;;;;;;15.75;9.35;;;;;;;;;;5094166;28;20170;-84
2023/06/15 01:39:19;;;;;;;14.70;9.38;;;14.60;99.90;;;;;;5094041;28;20182;-84
2023/06/15 01:41:45;;;;;;;16.27;9.88;;;13.60;99.90;;;;;;5094182;28;20220;-84
2023/06/15 01:44:12;;;;;;;15.65;10.10;;;13.50;99.90;;;;;;5093851;28;20211;-83
2023/06/15 01:46:38;;;;;;;17.50;9.95;;;13.50;99.90;;;;;;5094073;28;20265;-84
2023/06/15 01:49:04;;;;;;;16.40;9.48;;;;;;;;;;5093442;28;20639;-83
2023/06/15 01:51:30;;;;;;;21.63;10.02;;;13.50;99.90;;;;;;5093667;28;20186;-84
2023/06/15 01:53:56;;;;;;;16.40;9.50;;;13.50;99.90;;;;;;5093734;28;20312;-82
2023/06/15 01:56:22;;;;;;;16.77;9.35;;;13.40;99.90;;;;;;5093854;28;20206;-84
2023/06/15 01:58:48;;;;;;;17.33;8.98;;;13.40;99.90;;;;;;5076158;28;20182;-84
2023/06/15 02:01:14;;;;;;;22.63;9.43;;;13.40;99.90;;;;;;5093378;28;20171;-84
2023/06/15 02:03:39;;;;;;;15.00;9.02;;;13.30;99.90;;;;;;5093426;28;20274;-84
2023/06/15 02:06:05;;;;;;;17.83;9.80;;;13.30;99.90;;;;;;5093246;28;20258;-84
2023/06/15 02:08:31;;;;;;;19.23;10.95;;;13.20;99.90;;;;;;5093083;28;20174;-84
2023/06/15 02:10:56;;;;;;;18.10;10.77;;;13.20;99.90;;;;;;5093568;28;20186;-84
2023/06/15 02:13:22;;;;;;;16.75;9.70;;;13.20;99.90;;;;;;5093592;28;20179;-84
2023/06/15 02:15:48;;;;;;;18.83;10.38;;;13.20;99.90;;;;;;5093538;28;20175;-84
2023/06/15 02:18:14;;;;;;;17.10;10.20;;;13.20;99.90;;;;;;5093146;28;20179;-84
2023/06/15 02:20:44;;;;;;;18.05;10.10;;;13.30;99.90;;;;;;5093382;28;20189;-84
2023/06/15 02:23:10;;;;;;;16.83;10.10;;;13.30;99.90;;;;;;5093286;28;20179;-83
2023/06/15 02:25:37;;;;;;;20.40;11.57;;;13.20;99.90;;;;;;5075537;28;20231;-83
2023/06/15 02:28:02;;;;;;;17.73;10.23;;;13.20;99.90;;;;;;5093005;28;20193;-83
2023/06/15 02:30:28;;;;;;;17.67;10.32;;;13.20;99.90;;;;;;5093267;28;20230;-84
2023/06/15 02:32:55;;;;;;;16.00;9.55;;;13.20;99.90;;;;;;5093273;28;20216;-84
2023/06/15 02:35:21;;;;;;;18.88;11.15;;;13.10;99.90;;;;;;5093231;28;20243;-84
2023/06/15 02:37:47;;;;;;;22.23;11.23;;;13.10;99.90;;;;;;5093239;28;20178;-83
2023/06/15 02:40:13;;;;;;;18.58;10.30;;;13.10;99.90;;;;;;5092918;28;20178;-84
2023/06/15 02:42:39;;;;;;;16.40;10.25;;;13.10;99.90;;;;;;5093272;28;20175;-84
2023/06/15 02:45:07;;;;;;;15.30;9.48;;;13.10;99.90;;;;;;5092893;28;20178;-83
2023/06/15 02:47:47;;;;;;;17.23;9.98;;;13.00;99.90;;;;;;5093236;28;20178;-84
2023/06/15 02:50:14;;;;;;;15.48;9.77;;;13.00;99.90;;;;;;5092885;28;20233;-84
2023/06/15 02:52:40;;;;;;;14.43;9.30;;;13.00;99.90;;;;;;5093130;28;20194;-84
2023/06/15 02:55:09;;;;;;;15.95;9.85;;;13.00;99.90;;;;;;5092804;28;20232;-83
2023/06/15 02:57:41;;;;;;;18.52;9.48;;;13.00;99.90;;;;;;5093091;28;20171;-83
2023/06/15 03:00:12;;;;;;;16.30;10.27;;;12.90;99.90;;;;;;5093976;28;20182;-83
2023/06/15 03:02:43;;;;;;;15.60;9.77;;;12.90;99.90;;;;;;5112682;28;20187;-82
2023/06/15 03:05:09;;;;;;;14.30;9.45;;;12.90;99.90;;;;;;5111197;28;20174;-83
2023/06/15 03:07:35;;;;;;;15.80;9.88;;;12.90;99.90;;;;;;5109449;28;20228;-83
2023/06/15 03:10:01;;;;;;;17.27;9.70;;;12.90;99.90;;;;;;5093822;28;20309;-84
2023/06/15 03:12:27;;;;;;;20.38;9.75;;;12.90;99.90;;;;;;5092873;28;20258;-83
2023/06/15 03:14:53;;;;;;;19.42;9.35;;;12.90;99.90;;;;;;5092710;28;20181;-83
2023/06/15 03:17:21;;;;;;;13.75;9.77;;;12.90;99.90;;;;;;5092736;28;20248;-84
2023/06/15 03:19:47;;;;;;;15.30;9.63;;;13.00;99.90;;;;;;5093263;28;20183;-83
2023/06/15 03:22:14;;;;;;;15.85;9.77;;;13.00;99.90;;;;;;5096609;28;20177;-82
2023/06/15 03:24:41;;;;;;;22.33;10.10;;;13.10;99.90;;;;;;5096839;28;20261;-83
2023/06/15 03:27:09;;;;;;;23.10;10.30;;;13.20;99.90;;;;;;5078464;28;20182;-83
2023/06/15 03:29:36;;;;;;;13.95;8.88;;;13.30;99.90;;;;;;5096704;28;20234;-84
2023/06/15 03:32:07;;;;;;;20.60;10.60;;;13.30;99.90;;;;;;5096625;28;20256;-85
2023/06/15 03:34:37;;;;;;;12.32;9.05;;;13.30;99.90;;;;;;5096469;28;20659;-84
2023/06/15 03:37:03;;;;;;;16.50;10.20;;;13.30;99.90;;;;;;5078284;28;20550;-84
2023/06/15 03:39:29;;;;;;;17.02;10.02;;;13.30;99.90;;;;;;5096113;28;20187;-84
2023/06/15 03:41:55;;;;;;;16.23;9.05;;;13.30;99.90;;;;;;5096726;28;20532;-84
2023/06/15 03:44:20;;;;;;;15.43;9.45;;;13.30;99.90;;;;;;5095961;28;20190;-85
2023/06/15 03:46:47;;;;;;;15.43;9.05;;;13.30;99.90;;;;;;5096321;28;20179;-84
2023/06/15 03:49:13;;;;;;;18.60;9.52;;;13.30;99.90;;;;;;5095821;28;20219;-84
2023/06/15 03:51:39;;;;;;;20.20;10.88;;;13.30;99.90;;;;;;5096046;28;20217;-84
2023/06/15 03:54:04;;;;;;;18.85;9.60;;;13.40;99.90;;;;;;5095975;28;20202;-84
2023/06/15 03:56:30;;;;;;;15.25;9.10;;;13.50;99.90;;;;;;5095736;28;20171;-84
2023/06/15 03:58:56;;;;;;;23.17;10.32;;;13.40;99.90;;;;;;5096374;28;20190;-85
2023/06/15 04:01:24;;;;;;;15.15;9.65;;;13.50;99.90;;;;;;5084008;28;20179;-84
2023/06/15 04:03:50;;;;;;;18.02;10.25;;;13.60;99.90;;;;;;5074747;28;20532;-84
2023/06/15 04:06:16;;;;;;;18.65;10.95;;;13.60;99.90;;;;;;5074815;28;20232;-87
2023/06/15 04:08:43;;;;;;;19.85;9.80;;;13.70;99.90;;;;;;5074501;28;20624;-82
2023/06/15 04:11:09;;;;;;;15.75;10.13;;;13.80;99.90;;;;;;5074660;28;20238;-84
2023/06/15 04:13:35;;;;;;;17.08;10.48;;;13.80;99.90;;;;;;5074085;28;20186;-84
2023/06/15 04:16:00;;;;;;;14.48;10.02;;;13.90;99.90;;;;;;5074738;28;20183;-84
2023/06/15 04:18:26;;;;;;;19.45;10.38;;;13.90;99.90;;;;;;5039888;28;20183;-85
2023/06/15 04:20:55;;;;;;;16.15;9.70;;;13.90;99.90;;;;;;5074593;28;20180;-84
2023/06/15 04:23:20;;;;;;;18.27;10.65;;;13.90;99.90;;;;;;5074287;28;20176;-84
2023/06/15 04:25:47;;;;;;;18.73;10.75;;;14.00;99.90;;;;;;5074420;28;20258;-82
2023/06/15 04:28:13;;;;;;;18.65;11.02;;;14.00;99.90;;;;;;5074334;28;20267;-81
2023/06/15 04:30:40;;;;;;;20.73;11.75;;;14.10;99.90;;;;;;5073937;28;20321;-83
2023/06/15 04:33:13;;;;;;;22.75;10.70;;;14.20;99.90;;;;;;5073990;28;20586;-85
2023/06/15 04:35:45;;;;;;;17.38;10.95;;;14.20;99.90;;;;;;5074317;28;20278;-83
2023/06/15 04:38:13;;;;;;;15.90;10.65;;;14.30;99.90;;;;;;5074083;28;20186;-84
2023/06/15 04:40:41;;;;;;;20.05;11.32;;;14.30;99.90;;;;;;5055311;28;20647;-83
2023/06/15 04:43:08;;;;;;;17.98;10.88;;;14.20;99.90;;;;;;5051253;28;20194;-83
2023/06/15 04:45:34;;;;;;;20.90;11.13;;;14.20;99.90;;;;;;5071574;28;20191;-84
2023/06/15 04:48:00;;;;;;;20.25;12.02;;;14.30;99.90;;;;;;5055173;28;20198;-83
2023/06/15 04:50:26;;;;;;;18.50;11.57;;;;;;;;;;5054984;28;20210;-84
2023/06/15 04:52:52;;;;;;;19.13;12.15;;;14.40;99.90;;;;;;5072465;28;20666;-84
2023/06/15 04:55:17;;;;;;;17.73;11.02;;;14.50;99.90;;;;;;5054605;28;20214;-82
2023/06/15 04:57:44;;;;;;;21.35;11.93;;;14.40;99.90;;;;;;5073049;28;20195;-82
2023/06/15 05:00:11;;;;;;;20.15;11.82;;;14.40;99.90;;;;;;5072116;28;20207;-84
2023/06/15 05:02:36;;;;;;;17.77;11.57;;;14.50;99.90;;;;;;5054296;28;20988;-84
2023/06/15 05:05:02;;;;;;;18.08;11.00;;;14.60;99.90;;;;;;5073357;28;20186;-83
2023/06/15 05:07:28;;;;;;;21.17;11.27;;;14.70;99.90;;;;;;5072381;28;20183;-84
2023/06/15 05:09:55;;;;;;;17.88;10.98;;;14.80;99.90;;;;;;5038238;28;20221;-84
2023/06/15 05:12:20;;;;;;;21.88;12.43;;;14.80;99.90;;;;;;5072071;28;20674;-85
2023/06/15 05:14:46;;;;;;;21.08;11.70;;;14.90;99.90;;;;;;5054624;28;20191;-84
2023/06/15 05:17:12;;;;;;;20.42;11.75;;;14.90;99.90;;;;;;5072290;28;20636;-83
2023/06/15 05:19:39;;;;;;;20.02;11.82;;;14.90;99.90;;;;;;5071855;28;20191;-83
2023/06/15 05:22:06;;;;;;;19.00;11.10;;;15.00;99.90;;;;;;5073291;28;20670;-81
2023/06/15 05:24:32;;;;;;;19.48;11.80;;;15.00;99.90;;;;;;5068405;28;20667;-82
2023/06/15 05:26:58;;;;;;;20.30;11.60;;;15.00;99.90;;;;;;5077031;28;20221;-82
2023/06/15 05:29:23;;;;;;;18.70;11.98;;;15.10;99.90;;;;;;5076756;28;20226;-82
2023/06/15 05:31:49;;;;;;;18.02;11.70;;;15.10;99.90;;;;;;5086546;28;20278;-84
2023/06/15 05:34:15;;;;;;;23.48;11.60;;;15.10;99.90;;;;;;5071280;28;20265;-84
2023/06/15 05:36:41;;;;;;;25.02;12.23;;;15.20;99.90;;;;;;5053461;28;20197;-84
2023/06/15 05:39:07;;;;;;;23.38;12.15;;;15.30;99.90;;;;;;5071912;28;20216;-83
2023/06/15 05:41:33;;;;;;;22.88;12.95;;;15.40;99.90;;;;;;5071968;28;20226;-85
2023/06/15 05:44:00;;;;;;;22.25;11.90;;;15.50;99.90;;;;;;5070873;28;20175;-83
2023/06/15 05:46:25;;;;;;;21.05;10.93;;;15.60;99.90;;;;;;5053239;28;20255;-83
2023/06/15 05:48:51;;;;;;;27.27;13.02;;;15.80;99.90;;;;;;5054014;28;20195;-82
2023/06/15 05:51:17;;;;;;;19.00;11.77;;;15.90;99.90;;;;;;5071701;28;20205;-83
2023/06/15 05:53:45;;;;;;;26.27;12.60;;;15.90;99.90;;;;;;5071970;28;20596;-83
2023/06/15 05:56:11;;;;;;;16.58;10.80;;;16.00;99.90;;;;;;5071834;28;20596;-83
2023/06/15 05:58:40;;;;;;;22.13;12.27;;;16.10;99.90;;;;;;5071541;28;20262;-83
2023/06/15 06:01:06;;;;;;;16.35;9.88;;;16.20;99.90;;;;;;5071957;28;20289;-81
2023/06/15 06:03:38;;;;;;;20.55;10.57;;;16.20;99.90;;;;;;5070838;28;20671;-82
2023/06/15 06:06:07;;;;;;;17.42;9.73;;;16.20;99.90;;;;;;5055243;28;20183;-82
2023/06/15 06:08:35;;;;;;;17.05;10.40;;;16.10;99.90;;;;;;5071435;28;20262;-83
2023/06/15 06:11:03;;;;;;;18.58;11.07;;;16.30;99.90;;;;;;5071734;28;20218;-83
2023/06/15 06:13:30;;;;;;;20.58;9.30;;;16.60;99.90;;;;;;5070925;28;20189;-82
2023/06/15 06:15:56;;;;;;;17.58;10.50;;;16.90;99.90;;;;;;5055629;28;20187;-82
2023/06/15 06:18:22;;;;;;;20.90;9.88;;;16.80;99.90;;;;;;5071564;28;20241;-82
2023/06/15 06:20:48;;;;;;;14.25;9.43;;;16.90;99.90;;;;;;5053769;28;20201;-82
2023/06/15 06:23:13;;;;;;;16.20;9.93;;;16.80;99.90;;;;;;5071138;28;20191;-82
2023/06/15 06:25:39;;;;;;;17.38;9.55;;;17.00;99.90;;;;;;5071664;28;20195;-83
2023/06/15 06:28:11;;;;;;;11.90;7.97;;;17.10;99.90;;;;;;5037058;28;20190;-84
2023/06/15 06:30:38;;;;;;;15.88;9.27;;;17.30;99.90;;;;;;5071184;28;20325;-84
2023/06/15 06:33:06;;;;;;;13.00;8.05;;;17.60;99.90;;;;;;5053629;28;20536;-83
2023/06/15 06:35:39;;;;;;;11.73;7.43;;;17.70;99.90;;;;;;5071333;28;20190;-84
2023/06/15 06:38:10;;;;;;;10.07;6.63;;;17.60;99.90;;;;;;5070983;28;20194;-84
2023/06/15 06:40:36;;;;;;;13.45;7.97;;;17.50;99.90;;;;;;5069998;28;20618;-84
2023/06/15 06:43:02;;;;;;;10.23;7.22;;;17.60;99.90;;;;;;5053187;28;20262;-84
2023/06/15 06:45:33;;;;;;;10.75;7.30;;;17.80;99.90;;;;;;5071542;28;20185;-84
2023/06/15 06:48:26;;;;;;;10.50;6.93;;;17.90;99.90;;;;;;5049814;28;20175;-82
2023/06/15 06:50:51;;;;;;;9.60;6.85;;;18.00;99.90;;;;;;5070938;28;20211;-82
2023/06/15 06:53:22;;;;;;;19.67;7.13;;;18.20;99.90;;;;;;5070508;28;20186;-82
2023/06/15 06:55:57;;;;;;;12.00;7.15;;;18.30;99.90;;;;;;5074639;28;20214;-82
2023/06/15 06:58:23;;;;;;;8.85;6.32;;;18.10;99.90;;;;;;5075112;28;20186;-83
2023/06/15 07:00:51;;;;;;;14.38;7.10;;;17.70;99.90;;;;;;5074921;28;20248;-83
2023/06/15 07:03:20;;;;;;;10.05;6.15;;;17.70;99.90;;;;;;5074853;28;20666;-84
2023/06/15 07:06:00;;;;;;;10.20;5.97;;;17.40;99.90;;;;;;5075387;28;20715;-84
2023/06/15 07:08:44;;;;;;;11.43;6.70;;;17.10;99.90;;;;;;5082825;28;20183;-83
2023/06/15 07:11:19;;;;;;;11.93;6.47;;;18.00;99.90;;;;;;5094075;28;20218;-82
2023/06/15 07:17:06;;;;;;;9.32;6.68;;;18.10;99.90;;;;;;5080552;28;20221;-86
2023/06/15 07:19:32;;;;;;;9.07;6.30;;;17.80;99.90;;;;;;5059103;28;20273;-85
2023/06/15 07:21:58;;;;;;;11.50;6.70;;;;;;;;;;5074751;28;20278;-87
2023/06/15 07:24:26;;;;;;;11.50;5.72;;;18.10;99.90;;;;;;5056999;28;20529;-87
2023/06/15 07:28:11;;;;;;;;;;;;;;;;;;;;;
2023/06/15 07:30:57;;;;;;;11.13;6.20;;;18.60;99.90;;;;;;5064315;28;20198;-83
2023/06/15 07:33:23;;;;;;;8.73;5.70;;;18.70;99.90;;;;;;5067403;28;20187;-84
2023/06/15 07:36:06;;;;;;;8.27;5.47;;;18.60;99.90;;;;;;5067221;28;20198;-83
2023/06/15 07:38:42;;;;;;;;;;;;;;;;;;;;;
2023/06/15 07:41:16;;;;;;;7.65;5.03;;;18.70;99.90;;;;;;5062611;28;20513;-83
2023/06/15 07:43:58;;;;;;;8.70;5.18;;;18.30;99.90;;;;;;5061075;28;20190;-84
2023/06/15 07:49:18;;;;;;;9.55;4.82;;;18.20;99.90;;;;;;5060853;28;20199;-84
2023/06/15 07:52:09;;;;;;;9.80;5.53;;;18.20;99.90;;;;;;5068108;28;20175;-84
2023/06/15 07:54:49;;;;;;;8.45;5.40;;;17.70;99.90;;;;;;5025271;28;20208;-84
2023/06/15 07:57:38;;;;;;;7.38;5.35;;;18.20;99.90;;;;;;5055246;28;20290;-84
2023/06/15 08:00:05;;;;;;;7.35;4.90;;;17.70;99.90;;;;;;5057652;28;20199;-85
2023/06/15 08:02:31;;;;;;;10.18;5.70;;;18.70;99.90;;;;;;5068013;28;20258;-84
2023/06/15 08:04:57;;;;;;;8.38;5.72;;;;;;;;;;5067685;28;20382;-84
2023/06/15 08:07:23;;;;;;;9.80;4.82;;;18.80;99.90;;;;;;5068124;28;20203;-83
2023/06/15 08:09:48;;;;;;;4.88;3.95;;;19.70;99.90;;;;;;5068313;28;20664;-84
2023/06/15 08:12:14;;;;;;;4.72;3.92;;;;;;;;;;5069779;28;20184;-84
2023/06/15 08:14:40;;;;;;;7.32;3.90;;;20.40;99.90;;;;;;5069566;28;20182;-84
2023/06/15 08:17:06;;;;;;;7.65;3.95;;;;;;;;;;5069659;28;20262;-85
2023/06/15 08:19:32;;;;;;;11.93;4.45;;;;;;;;;;5069609;28;20172;-84
2023/06/15 08:21:58;;;;;;;5.00;3.63;;;19.40;99.90;;;;;;5069550;28;20263;-84
2023/06/15 08:24:24;;;;;;;6.72;3.97;;;;;;;;;;5069517;28;20258;-84
2023/06/15 08:26:50;;;;;;;6.55;4.00;;;19.30;99.90;;;;;;5079273;28;20230;-83
2023/06/15 08:29:16;;;;;;;5.88;3.85;;;19.20;99.90;;;;;;5071590;28;20628;-84
2023/06/15 08:31:42;;;;;;;3.95;3.28;;;19.50;99.90;;;;;;5089059;28;20179;-83
2023/06/15 08:34:08;;;;;;;4.63;3.60;;;19.70;99.90;;;;;;5071598;28;20203;-85
2023/06/15 08:36:34;;;;;;;4.68;3.40;;;19.90;99.90;;;;;;5071598;28;20248;-84
2023/06/15 08:39:00;;;;;;;6.57;4.43;;;19.80;99.90;;;;;;5078851;28;20183;-84
2023/06/15 08:41:27;;;;;;;4.15;3.65;;;19.70;99.90;;;;;;5076009;28;20190;-84
2023/06/15 08:43:56;;;;;;;4.22;2.97;;;19.70;99.90;;;;;;5075503;28;20182;-84
2023/06/15 08:46:24;;;;;;;5.28;3.42;;;19.50;99.90;;;;;;5075811;28;20245;-84
2023/06/15 08:48:52;;;;;;;5.30;3.65;;;19.90;99.90;;;;;;5075661;28;20179;-84
2023/06/15 08:51:19;;;;;;;4.15;3.10;;;19.50;99.90;;;;;;5075741;28;20182;-84
2023/06/15 08:53:46;;;;;;;6.90;3.63;;;19.40;99.90;;;;;;5075986;28;20289;-82
2023/06/15 08:56:12;;;;;;;5.55;3.28;;;19.40;99.90;;;;;;5081216;28;20178;-84
2023/06/15 08:58:49;;;;;;;5.75;3.17;;;19.60;99.90;;;;;;5084153;28;20171;-83
2023/06/15 09:01:23;;;;;;;4.50;3.47;;;19.90;99.90;;;;;;5097361;28;20163;-83
2023/06/15 09:03:53;;;;;;;4.30;3.13;;;19.70;99.90;;;;;;5076603;28;20197;-85
2023/06/15 09:06:23;;;;;;;3.58;2.88;;;20.20;99.90;;;;;;5076013;28;20234;-83
2023/06/15 09:08:50;;;;;;;3.88;3.25;;;;;;;;;;5075588;28;20179;-83
2023/06/15 09:11:17;;;;;;;4.78;3.42;;;20.00;99.90;;;;;;5076277;28;20181;-83
2023/06/15 09:13:43;;;;;;;4.93;3.15;;;20.10;99.90;;;;;;5057716;28;20567;-86
2023/06/15 09:16:09;;;;;;;4.15;3.03;;;;;;;;;;5075294;28;20183;-84
2023/06/15 09:18:51;;;;;;;5.60;3.65;;;19.40;99.90;;;;;;5075633;28;20522;-84
2023/06/15 09:21:20;;;;;;;6.70;4.18;;;19.60;99.90;;;;;;5075608;28;20213;-84
2023/06/15 09:23:46;;;;;;;4.50;3.45;;;19.80;99.90;;;;;;5075090;28;20172;-83
2023/06/15 09:26:27;;;;;;;4.93;3.67;;;19.90;99.90;;;;;;5075337;28;20274;-83
2023/06/15 09:28:57;;;;;;;6.10;3.65;;;20.50;99.90;;;;;;5075208;28;20163;-83
2023/06/15 09:31:29;;;;;;;5.15;3.65;;;20.50;99.90;;;;;;5075202;28;20263;-84
2023/06/15 09:34:09;;;;;;;6.28;4.07;;;20.20;99.90;;;;;;5074972;28;20258;-83
2023/06/15 09:36:41;;;;;;;6.45;3.92;;;20.10;99.90;;;;;;5075179;28;20173;-83
2023/06/15 09:39:11;;;;;;;6.07;4.25;;;20.40;99.90;;;;;;5057005;28;20206;-84
2023/06/15 09:42:00;;;;;;;11.32;4.43;;;20.20;99.90;;;;;;5075083;28;20178;-83
2023/06/15 09:44:26;;;;;;;4.93;3.55;;;;;;;;;;5074977;28;20206;-83
2023/06/15 09:46:54;;;;;;;6.18;3.90;;;20.70;99.90;;;;;;5074418;28;20203;-83
2023/06/15 09:49:26;;;;;;;4.65;3.45;;;20.70;99.90;;;;;;5073992;28;20179;-84
2023/06/15 09:51:53;;;;;;;3.97;2.85;;;20.70;99.90;;;;;;5056466;28;20565;-83
2023/06/15 09:54:21;;;;;;;3.30;2.60;;;20.70;99.90;;;;;;5074697;28;20177;-84
2023/06/15 09:56:52;;;;;;;4.78;2.80;;;20.70;98.80;;;;;;5074715;28;20627;-84
2023/06/15 09:59:18;;;;;;;4.10;3.05;;;20.60;99.90;;;;;;5074695;28;20210;-83
2023/06/15 10:01:46;;;;;;;3.65;3.17;;;20.90;99.90;;;;;;5073984;28;20596;-83
2023/06/15 10:04:13;;;;;;;3.65;2.80;;;21.10;98.20;;;;;;5073610;28;20996;-83
2023/06/15 10:06:43;;;;;;;4.53;2.80;;;21.10;98.60;;;;;;5065440;28;20215;-83
2023/06/15 10:09:10;;;;;;;3.60;2.95;;;21.50;99.90;;;;;;5063214;28;20660;-84
2023/06/15 10:11:42;;;;;;;5.00;3.53;;;21.30;95.40;;;;;;5070307;28;20278;-84
2023/06/15 10:14:34;;;;;;;5.57;3.55;;;20.70;99.90;;;;;;5061163;28;20538;-84
2023/06/15 10:17:05;;;;;;;4.97;3.70;;;21.50;96.40;;;;;;5041487;28;20196;-84
2023/06/15 10:19:43;;;;;;;4.72;3.30;;;;;;;;;;5052392;28;20623;-85
2023/06/15 10:22:16;;;;;;;5.60;3.45;;;21.50;99.90;;;;;;5051924;28;20620;-85
2023/06/15 10:24:44;;;;;;;4.40;3.30;;;21.70;99.90;;;;;;5052372;28;20773;-84
2023/06/15 10:27:10;;;;;;;5.50;3.55;;;;;;;;;;5033174;28;20243;-84
2023/06/15 10:29:56;;;;;;;5.15;3.08;;;21.50;93.50;;;;;;5051648;28;20207;-84
2023/06/15 10:32:26;;;;;;;3.72;2.78;;;21.50;95.00;;;;;;5052749;28;20160;-85
2023/06/15 10:35:03;;;;;;;4.68;3.45;;;21.20;99.90;;;;;;5053883;28;20169;-84
2023/06/15 10:37:37;;;;;;;6.43;4.03;;;21.60;95.40;;;;;;5053740;28;20172;-85
2023/06/15 10:40:16;;;;;;;5.60;3.83;;;21.80;93.70;;;;;;5053725;28;20163;-84
2023/06/15 10:42:47;;;;;;;4.28;3.33;;;21.60;93.20;;;;;;5053643;28;20607;-84
2023/06/15 10:45:21;;;;;;;3.92;3.17;;;21.50;93.30;;;;;;5053094;28;20187;-85
2023/06/15 10:47:51;;;;;;;4.60;3.92;;;21.60;93.30;;;;;;5053362;28;20203;-86
2023/06/15 10:50:16;;;;;;;4.70;3.78;;;21.50;91.50;;;;;;5035646;28;20184;-85
2023/06/15 10:52:42;;;;;;;6.80;4.05;;;21.50;93.10;;;;;;5053775;28;20191;-85
2023/06/15 10:55:09;;;;;;;5.38;3.67;;;21.60;91.60;;;;;;5053229;28;20272;-85
2023/06/15 10:57:36;;;;;;;6.00;4.43;;;21.30;91.50;;;;;;5035863;28;20257;-85
2023/06/15 11:00:04;;;;;;;6.50;4.75;;;21.30;93.10;;;;;;5053036;28;20174;-85
2023/06/15 11:02:31;;;;;;;5.82;4.53;;;21.40;93.30;;;;;;5052939;28;20263;-86
2023/06/15 11:05:05;;;;;;;6.03;4.10;;;21.70;93.60;;;;;;5053103;28;20582;-86
2023/06/15 11:07:36;;;;;;;5.80;4.55;;;21.80;92.30;;;;;;5053057;28;20203;-86
2023/06/15 11:10:09;;;;;;;7.13;4.18;;;22.10;94.30;;;;;;5052842;28;20184;-85
2023/06/15 11:12:36;;;;;;;8.93;4.40;;;22.30;92.20;;;;;;5053356;28;20167;-86
2023/06/15 11:15:04;;;;;;;6.10;4.60;;;22.60;92.30;;;;;;5052904;28;20259;-85
2023/06/15 11:17:30;;;;;;;6.65;4.38;;;22.80;90.90;;;;;;5053242;28;20184;-85
2023/06/15 11:19:57;;;;;;;4.95;4.35;;;22.60;89.20;;;;;;5053068;28;20209;-86
2023/06/15 11:22:25;;;;;;;5.15;4.20;;;22.40;87.60;;;;;;5052701;28;20180;-86
2023/06/15 11:24:54;;;;;;;4.88;3.88;;;22.30;88.90;;;;;;5052786;28;20618;-86
2023/06/15 11:27:23;;;;;;;8.82;4.72;;;22.50;90.40;;;;;;5052655;28;20270;-86
2023/06/15 11:29:57;;;;;;;5.50;4.55;;;22.50;88.50;;;;;;5055402;28;20221;-86
2023/06/15 11:32:26;;;;;;;6.32;5.05;;;22.50;88.80;;;;;;5075699;28;20164;-82
2023/06/15 11:35:00;;;;;;;7.93;5.15;;;22.60;90.30;;;;;;5068600;28;20173;-83
2023/06/15 11:37:28;;;;;;;5.80;4.40;;;22.70;90.50;;;;;;5052585;28;20179;-84
2023/06/15 11:39:54;;;;;;;6.03;4.60;;;22.90;91.60;;;;;;5052671;28;20182;-86
2023/06/15 11:42:22;;;;;;;6.55;4.63;;;22.60;87.40;;;;;;5052576;28;20180;-86
2023/06/15 11:44:49;;;;;;;6.95;4.43;;;22.50;90.00;;;;;;5052663;28;20253;-86
2023/06/15 11:47:16;;;;;;;7.35;5.28;;;22.90;88.10;;;;;;5052509;28;20222;-86
2023/06/15 11:49:44;;;;;;;5.38;4.80;;;22.50;85.50;;;;;;5052998;28;20222;-86
2023/06/15 11:52:10;;;;;;;6.80;4.97;;;22.10;88.60;;;;;;5053923;28;20176;-84
2023/06/15 11:54:36;;;;;;;7.90;4.78;;;22.40;85.40;;;;;;5076318;28;20163;-85
2023/06/15 11:57:02;;;;;;;7.50;5.35;;;22.70;89.30;;;;;;5061421;28;20666;-85
2023/06/15 11:59:28;;;;;;;9.30;5.70;;;23.10;90.00;;;;;;5052322;28;20172;-85
2023/06/15 12:01:58;;;;;;;7.15;4.82;;;23.10;85.60;;;;;;5052803;28;20309;-85
2023/06/15 12:04:29;;;;;;;6.28;4.63;;;22.80;86.00;;;;;;5052422;28;20171;-84
2023/06/15 12:06:55;;;;;;;5.07;4.50;;;22.80;83.90;;;;;;5052455;28;20224;-85
2023/06/15 12:09:21;;;;;;;5.75;4.20;;;22.70;78.80;;;;;;5052474;28;20176;-85
2023/06/15 12:11:47;;;;;;;6.57;4.65;;;22.40;79.20;;;;;;5052771;28;20234;-85
2023/06/15 12:14:22;;;;;;;6.47;4.32;;;22.40;81.40;;;;;;5054822;28;20190;-84
2023/06/15 12:16:52;;;;;;;5.88;4.60;;;22.50;77.20;;;;;;5056436;28;20237;-84
2023/06/15 12:19:20;;;;;;;7.30;4.63;;;22.60;79.60;;;;;;5056322;28;20203;-85
2023/06/15 12:21:46;;;;;;;9.35;4.88;;;22.70;82.10;;;;;;5056492;28;20184;-85
2023/06/15 12:24:16;;;;;;;6.93;4.95;;;22.50;78.10;;;;;;5056094;28;20176;-84
2023/06/15 12:26:52;;;;;;;6.63;4.75;;;22.40;79.70;;;;;;5056444;28;20262;-84
2023/06/15 12:29:20;;;;;;;6.03;4.68;;;22.50;81.10;;;;;;5056021;28;20315;-85
2023/06/15 12:32:04;;;;;;;5.38;4.60;;;22.80;80.60;;;;;;5056563;28;20234;-85
2023/06/15 12:34:29;;;;;;;5.78;4.65;;;23.10;78.60;;;;;;5056035;28;20177;-85
2023/06/15 12:36:55;;;;;;;6.85;4.80;;;23.00;79.40;;;;;;5056404;28;20580;-85
2023/06/15 12:39:30;;;;;;;5.82;4.57;;;22.90;78.50;;;;;;5055637;28;20620;-84
2023/06/15 12:42:01;;;;;;;6.53;4.70;;;22.90;79.70;;;;;;5038375;28;20547;-84
2023/06/15 12:44:26;;;;;;;6.65;5.20;;;23.10;80.20;;;;;;5055742;28;20200;-83
2023/06/15 12:46:52;;;;;;;5.55;4.10;;;23.00;76.70;;;;;;5056096;28;20652;-83
2023/06/15 12:49:17;;;;;;;5.93;4.28;;;22.90;76.90;;;;;;5055748;28;20204;-84
2023/06/15 12:51:46;;;;;;;4.60;3.85;;;23.00;76.80;;;;;;5056001;28;20205;-85
2023/06/15 12:54:12;;;;;;;5.95;4.50;;;23.00;75.70;;;;;;5055589;28;20258;-82
2023/06/15 12:56:37;;;;;;;6.07;4.68;;;22.50;75.50;;;;;;5056027;28;20284;-85
2023/06/15 12:59:03;;;;;;;4.78;3.90;;;22.40;75.20;;;;;;5056172;28;20204;-84